createdAt,value
2023-01-19T00:02:03.042Z,88.91
2023-01-19T00:04:31.421Z,89.43
2023-01-19T00:07:05.326Z,89.55
2023-01-19T00:09:34.137Z,89.82
2023-01-19T00:12:02.465Z,90.13
2023-01-19T00:14:30.810Z,89.67
2023-01-19T00:16:59.451Z,90.11
2023-01-19T00:19:32.040Z,89.81
2023-01-19T00:22:00.480Z,89.97
2023-01-19T00:24:28.967Z,90.22
2023-01-19T00:26:58.183Z,90.00
2023-01-19T00:29:27.778Z,90.07
2023-01-19T00:31:56.321Z,90.08
2023-01-19T00:34:24.624Z,89.87
2023-01-19T00:36:54.499Z,89.39
2023-01-19T00:39:22.919Z,90.02
2023-01-19T00:42:08.654Z,89.67
2023-01-19T00:44:37.054Z,89.70
2023-01-19T00:47:05.881Z,89.62
2023-01-19T00:49:36.923Z,89.72
2023-01-19T00:52:07.139Z,89.87
2023-01-19T00:54:35.481Z,89.68
2023-01-19T00:57:04.590Z,90.13
2023-01-19T00:59:32.970Z,89.83
2023-01-19T01:02:01.483Z,89.53
2023-01-19T01:04:30.113Z,90.01
2023-01-19T01:06:58.454Z,89.47
2023-01-19T01:09:28.161Z,89.89
2023-01-19T01:11:56.828Z,89.92
2023-01-19T01:14:25.258Z,89.44
2023-01-19T01:16:53.928Z,89.33
2023-01-19T01:19:22.598Z,89.54
2023-01-19T01:21:51.325Z,89.67
2023-01-19T01:24:20.924Z,89.91
2023-01-19T01:26:50.640Z,90.14
2023-01-19T01:29:18.993Z,89.72
2023-01-19T01:31:47.385Z,90.15
2023-01-19T01:34:16.669Z,89.90
2023-01-19T01:36:45.107Z,89.96
2023-01-19T01:39:13.389Z,90.24
2023-01-19T01:41:41.763Z,89.89
2023-01-19T01:44:52.222Z,89.58
2023-01-19T01:47:25.638Z,89.42
2023-01-19T01:49:58.156Z,89.78
2023-01-19T01:52:29.230Z,89.53
2023-01-19T01:54:58.193Z,89.53
2023-01-19T01:57:28.198Z,89.88
2023-01-19T01:59:59.739Z,90.40
2023-01-19T02:02:48.751Z,90.38
2023-01-19T02:05:19.640Z,90.60
2023-01-19T02:08:08.423Z,90.04
2023-01-19T02:10:54.274Z,89.99
2023-01-19T02:13:22.853Z,90.40
2023-01-19T02:15:53.633Z,90.63
2023-01-19T02:18:23.689Z,90.29
2023-01-19T02:21:01.377Z,90.70
2023-01-19T02:23:42.186Z,91.02
2023-01-19T02:26:15.479Z,90.85
2023-01-19T02:28:46.176Z,91.35
2023-01-19T02:31:15.332Z,91.30
2023-01-19T02:33:43.751Z,91.39
2023-01-19T02:36:13.543Z,91.61
2023-01-19T02:38:44.306Z,91.74
2023-01-19T02:41:15.992Z,92.01
2023-01-19T02:43:44.945Z,92.35
2023-01-19T02:46:13.724Z,92.46
2023-01-19T02:48:42.407Z,92.07
2023-01-19T02:51:13.919Z,92.03
2023-01-19T02:53:53.495Z,92.24
2023-01-19T02:56:41.223Z,92.33
2023-01-19T02:59:16.539Z,92.29
2023-01-19T03:01:57.080Z,91.78
2023-01-19T03:04:30.427Z,91.72
2023-01-19T03:07:03.570Z,91.23
2023-01-19T03:09:41.729Z,91.84
2023-01-19T03:12:13.589Z,90.71
2023-01-19T03:14:44.534Z,90.44
2023-01-19T03:17:13.693Z,90.20
2023-01-19T03:19:43.956Z,89.82
2023-01-19T03:22:15.289Z,90.44
2023-01-19T03:24:47.416Z,89.73
2023-01-19T03:27:17.939Z,90.26
2023-01-19T03:29:49.401Z,90.46
2023-01-19T03:32:19.228Z,90.03
2023-01-19T03:34:48.435Z,90.18
2023-01-19T03:37:17.866Z,89.85
2023-01-19T03:39:47.577Z,89.83
2023-01-19T03:42:17.994Z,90.50
2023-01-19T03:44:50.639Z,90.08
2023-01-19T03:47:21.054Z,90.11
2023-01-19T03:49:51.023Z,90.26
2023-01-19T03:52:19.502Z,89.98
2023-01-19T03:54:49.317Z,90.63
2023-01-19T03:57:17.940Z,90.32
2023-01-19T03:59:46.222Z,90.43
2023-01-19T04:02:15.147Z,90.90
2023-01-19T04:04:43.720Z,90.54
2023-01-19T04:07:12.385Z,90.77
2023-01-19T04:09:41.934Z,90.30
2023-01-19T04:12:11.848Z,90.55
2023-01-19T04:14:40.168Z,90.20
2023-01-19T04:17:09.328Z,89.89
2023-01-19T04:19:37.840Z,90.00
2023-01-19T04:22:08.270Z,89.62
2023-01-19T04:24:36.589Z,89.53
2023-01-19T04:27:05.437Z,89.55
2023-01-19T04:29:35.232Z,89.46
2023-01-19T04:32:03.557Z,89.48
2023-01-19T04:34:31.940Z,89.64
2023-01-19T04:37:00.300Z,89.57
2023-01-19T04:39:28.739Z,89.60
2023-01-19T04:41:57.565Z,89.65
2023-01-19T04:44:25.942Z,89.77
2023-01-19T04:46:57.701Z,89.73
2023-01-19T04:49:26.187Z,90.08
2023-01-19T04:51:54.858Z,89.95
2023-01-19T04:54:23.634Z,90.52
2023-01-19T04:56:53.963Z,90.41
2023-01-19T04:59:22.330Z,90.90
2023-01-19T05:01:50.834Z,90.66
2023-01-19T05:04:22.489Z,91.06
2023-01-19T05:06:51.737Z,91.30
2023-01-19T05:09:21.410Z,91.42
2023-01-19T05:11:50.933Z,91.83
2023-01-19T05:14:19.303Z,91.83
2023-01-19T05:16:47.680Z,91.68
2023-01-19T05:19:16.082Z,91.61
2023-01-19T05:21:45.806Z,91.73
2023-01-19T05:24:14.349Z,91.58
2023-01-19T05:26:47.632Z,91.65
2023-01-19T05:29:16.003Z,91.82
2023-01-19T05:31:47.353Z,91.59
2023-01-19T05:34:18.510Z,91.81
2023-01-19T05:36:52.187Z,91.91
2023-01-19T05:39:20.590Z,91.47
2023-01-19T05:41:48.958Z,91.44
2023-01-19T05:44:17.328Z,91.70
2023-01-19T05:46:45.919Z,91.17
2023-01-19T05:49:14.451Z,91.20
2023-01-19T05:51:45.555Z,91.29
2023-01-19T05:54:18.328Z,91.34
2023-01-19T05:56:46.750Z,91.31
2023-01-19T05:59:15.445Z,91.28
2023-01-19T06:01:43.848Z,91.02
2023-01-19T06:04:12.218Z,91.18
2023-01-19T06:06:40.514Z,91.21
2023-01-19T06:09:09.035Z,91.25
2023-01-19T06:11:41.302Z,91.09
2023-01-19T06:14:10.967Z,91.15
2023-01-19T06:16:39.363Z,91.11
2023-01-19T06:19:07.930Z,91.31
2023-01-19T06:21:41.447Z,91.45
2023-01-19T06:24:11.690Z,91.34
2023-01-19T06:26:43.340Z,91.48
2023-01-19T06:29:12.504Z,91.22
2023-01-19T06:31:43.563Z,91.20
2023-01-19T06:34:12.264Z,90.97
2023-01-19T06:36:40.643Z,91.24
2023-01-19T06:39:12.824Z,91.56
2023-01-19T06:41:42.602Z,91.47
2023-01-19T06:44:10.949Z,91.81
2023-01-19T06:46:39.273Z,91.55
2023-01-19T06:49:07.747Z,91.51
2023-01-19T06:51:39.364Z,91.71
2023-01-19T06:54:07.787Z,91.65
2023-01-19T06:56:36.514Z,91.83
2023-01-19T06:59:08.638Z,91.54
2023-01-19T07:01:37.260Z,91.60
2023-01-19T07:04:05.872Z,91.86
2023-01-19T07:06:36.818Z,91.36
2023-01-19T07:09:17.871Z,91.32
2023-01-19T07:11:46.281Z,91.60
2023-01-19T07:14:16.725Z,91.08
2023-01-19T07:16:45.133Z,90.94
2023-01-19T07:19:14.358Z,91.09
2023-01-19T07:21:42.757Z,91.03
2023-01-19T07:24:13.225Z,91.01
2023-01-19T07:26:41.516Z,90.81
2023-01-19T07:29:10.044Z,91.00
2023-01-19T07:31:40.404Z,90.91
2023-01-19T07:34:09.186Z,91.01
2023-01-19T07:36:38.239Z,91.19
2023-01-19T07:39:06.585Z,91.04
2023-01-19T07:41:34.965Z,90.91
2023-01-19T07:44:04.802Z,90.78
2023-01-19T07:46:33.123Z,90.55
2023-01-19T07:49:02.848Z,90.64
2023-01-19T07:51:31.306Z,90.87
2023-01-19T07:53:59.785Z,90.71
2023-01-19T07:56:31.669Z,90.94
2023-01-19T07:59:01.347Z,90.60
2023-01-19T08:01:32.596Z,90.78
2023-01-19T08:04:02.450Z,90.56
2023-01-19T08:06:34.928Z,91.20
2023-01-19T08:09:05.721Z,91.09
2023-01-19T08:11:36.874Z,90.79
2023-01-19T08:14:08.132Z,90.84
2023-01-19T08:16:36.644Z,90.89
2023-01-19T08:19:06.379Z,90.94
2023-01-19T08:21:36.000Z,90.93
2023-01-19T08:24:06.603Z,91.10
2023-01-19T08:26:36.291Z,91.09
2023-01-19T08:29:06.827Z,90.72
2023-01-19T08:31:35.207Z,90.75
2023-01-19T08:34:05.560Z,90.74
2023-01-19T08:36:35.690Z,90.59
2023-01-19T08:39:09.343Z,90.46
2023-01-19T08:41:37.677Z,90.07
2023-01-19T08:44:11.330Z,90.05
2023-01-19T08:46:39.704Z,89.70
2023-01-19T08:49:12.866Z,89.55
2023-01-19T08:51:47.286Z,89.75
2023-01-19T08:54:18.578Z,90.00
2023-01-19T08:56:47.069Z,90.40
2023-01-19T08:59:15.455Z,90.01
2023-01-19T09:01:43.920Z,90.62
2023-01-19T09:04:12.540Z,90.58
2023-01-19T09:06:42.344Z,91.03
2023-01-19T09:09:10.834Z,90.75
2023-01-19T09:11:39.209Z,90.46
2023-01-19T09:14:08.353Z,90.89
2023-01-19T09:16:36.930Z,91.21
2023-01-19T09:19:08.738Z,91.32
2023-01-19T09:21:39.145Z,91.57
2023-01-19T09:24:12.303Z,91.20
2023-01-19T09:26:41.347Z,90.88
2023-01-19T09:29:09.724Z,91.16
2023-01-19T09:31:40.273Z,91.25
2023-01-19T09:34:08.756Z,91.17
2023-01-19T09:36:37.592Z,91.25
2023-01-19T09:39:06.015Z,91.45
2023-01-19T09:41:38.663Z,91.22
2023-01-19T09:44:11.320Z,91.46
2023-01-19T09:46:41.743Z,90.75
2023-01-19T09:49:14.482Z,90.85
2023-01-19T09:51:50.812Z,90.77
2023-01-19T09:54:20.822Z,90.67
2023-01-19T09:56:52.894Z,90.67
2023-01-19T09:59:23.363Z,90.80
2023-01-19T10:02:19.752Z,90.56
2023-01-19T10:04:55.817Z,90.53
2023-01-19T10:07:44.118Z,90.58
2023-01-19T10:10:22.252Z,90.28
2023-01-19T10:12:59.470Z,90.15
2023-01-19T10:15:37.644Z,90.26
2023-01-19T10:18:14.200Z,90.22
2023-01-19T10:20:47.253Z,90.02
2023-01-19T10:23:23.322Z,89.99
2023-01-19T10:25:52.254Z,90.35
2023-01-19T10:28:25.451Z,89.89
2023-01-19T10:30:55.817Z,89.75
2023-01-19T10:33:24.275Z,89.84
2023-01-19T10:35:52.884Z,89.69
2023-01-19T10:38:22.394Z,89.73
2023-01-19T10:40:56.560Z,89.45
2023-01-19T10:43:42.806Z,89.84
2023-01-19T10:46:20.748Z,89.47
2023-01-19T10:48:51.997Z,89.61
2023-01-19T10:51:20.641Z,89.49
2023-01-19T10:53:58.319Z,89.49
2023-01-19T10:56:29.615Z,89.44
2023-01-19T10:59:00.937Z,89.13
2023-01-19T11:01:30.702Z,89.67
2023-01-19T11:04:05.713Z,89.70
2023-01-19T11:06:35.838Z,89.67
2023-01-19T11:09:18.331Z,89.42
2023-01-19T11:11:49.538Z,89.41
2023-01-19T11:14:22.329Z,89.19
2023-01-19T11:16:53.525Z,89.73
2023-01-19T11:19:28.837Z,90.33
2023-01-19T11:22:16.732Z,90.36
2023-01-19T11:24:45.615Z,90.63
2023-01-19T11:27:17.987Z,90.67
2023-01-19T11:29:51.099Z,91.07
2023-01-19T11:32:22.635Z,91.08
2023-01-19T11:34:51.325Z,91.17
2023-01-19T11:37:31.500Z,91.04
2023-01-19T11:40:02.703Z,91.16
2023-01-19T11:42:34.637Z,91.42
2023-01-19T11:45:09.101Z,91.70
2023-01-19T11:47:40.829Z,91.47
2023-01-19T11:50:17.431Z,91.80
2023-01-19T11:52:47.515Z,91.86
2023-01-19T11:55:21.556Z,92.27
2023-01-19T11:57:54.867Z,92.19
2023-01-19T12:00:35.840Z,91.90
2023-01-19T12:03:09.891Z,91.79
2023-01-19T12:05:40.853Z,92.01
2023-01-19T12:08:14.533Z,92.10
2023-01-19T12:10:45.737Z,92.45
2023-01-19T12:13:24.602Z,92.17
2023-01-19T12:15:57.955Z,92.14
2023-01-19T12:18:29.778Z,92.10
2023-01-19T12:20:58.922Z,91.85
2023-01-19T12:23:38.105Z,91.59
2023-01-19T12:26:23.591Z,91.74
2023-01-19T12:28:54.461Z,91.92
2023-01-19T12:31:24.790Z,91.72
2023-01-19T12:33:53.177Z,91.85
2023-01-19T12:36:40.389Z,91.96
2023-01-19T12:39:17.120Z,91.58
2023-01-19T12:41:46.048Z,91.79
2023-01-19T12:44:22.904Z,91.89
2023-01-19T12:46:55.206Z,91.71
2023-01-19T12:49:29.315Z,91.95
2023-01-19T12:52:14.738Z,91.84
2023-01-19T12:54:47.999Z,91.91
2023-01-19T12:57:22.545Z,91.93
2023-01-19T12:59:57.555Z,92.09
2023-01-19T13:02:43.443Z,91.66
2023-01-19T13:05:20.218Z,91.65
2023-01-19T13:08:17.246Z,91.68
2023-01-19T13:11:19.767Z,91.56
2023-01-19T13:14:29.521Z,91.39
2023-01-19T13:17:02.774Z,91.23
2023-01-19T13:19:44.237Z,91.48
2023-01-19T13:22:53.427Z,91.25
2023-01-19T13:25:33.864Z,91.60
2023-01-19T13:28:02.611Z,91.22
2023-01-19T13:30:31.256Z,91.00
2023-01-19T13:33:04.945Z,91.44
2023-01-19T13:35:34.871Z,91.54
2023-01-19T13:38:03.694Z,91.49
2023-01-19T13:40:41.095Z,91.51
2023-01-19T13:43:17.422Z,91.61
2023-01-19T13:45:51.157Z,91.52
2023-01-19T13:48:24.642Z,91.26
2023-01-19T13:51:05.684Z,91.61
2023-01-19T13:53:34.648Z,91.32
2023-01-19T13:56:17.604Z,91.17
2023-01-19T13:59:10.405Z,91.07
2023-01-19T14:01:40.883Z,91.20
2023-01-19T14:04:25.480Z,91.39
2023-01-19T14:06:58.360Z,91.54
2023-01-19T14:09:26.890Z,91.86
2023-01-19T14:12:14.142Z,91.56
2023-01-19T14:14:43.126Z,91.73
2023-01-19T14:17:24.608Z,91.53
2023-01-19T14:19:54.235Z,91.56
2023-01-19T14:22:39.027Z,91.88
2023-01-19T14:25:33.072Z,91.78
2023-01-19T14:28:39.779Z,92.31
2023-01-19T14:31:21.808Z,91.52
2023-01-19T14:33:51.620Z,91.98
2023-01-19T14:36:31.175Z,91.74
2023-01-19T14:39:01.675Z,91.86
2023-01-19T14:41:37.496Z,92.48
2023-01-19T14:44:09.826Z,92.24
2023-01-19T14:46:38.563Z,92.40
2023-01-19T14:49:08.116Z,92.00
2023-01-19T14:51:36.644Z,91.78
2023-01-19T14:54:06.773Z,91.68
2023-01-19T14:56:35.973Z,92.09
2023-01-19T14:59:10.941Z,91.92
2023-01-19T15:01:39.418Z,91.80
2023-01-19T15:04:07.882Z,92.16
2023-01-19T15:06:40.658Z,91.94
2023-01-19T15:09:12.420Z,91.59
2023-01-19T15:11:41.252Z,91.99
2023-01-19T15:14:13.463Z,92.10
2023-01-19T15:16:43.983Z,92.17
2023-01-19T15:19:13.468Z,92.14
2023-01-19T15:21:42.445Z,92.50
2023-01-19T15:24:12.619Z,92.27
2023-01-19T15:26:42.015Z,92.59
2023-01-19T15:29:23.325Z,93.54
2023-01-19T15:31:52.120Z,93.54
2023-01-19T15:34:20.548Z,93.68
2023-01-19T15:36:49.217Z,93.49
2023-01-19T15:39:19.023Z,93.38
2023-01-19T15:41:47.449Z,94.25
2023-01-19T15:44:15.894Z,93.72
2023-01-19T15:46:44.296Z,93.44
2023-01-19T15:49:12.628Z,93.61
2023-01-19T15:51:41.051Z,93.91
2023-01-19T15:54:11.998Z,93.90
2023-01-19T15:56:43.270Z,93.66
2023-01-19T15:59:11.670Z,93.74
2023-01-19T16:01:41.935Z,94.22
2023-01-19T16:04:12.017Z,94.18
2023-01-19T16:06:40.430Z,93.37
2023-01-19T16:09:08.741Z,92.94
2023-01-19T16:11:37.937Z,93.08
2023-01-19T16:14:07.659Z,93.35
2023-01-19T16:16:38.259Z,93.27
2023-01-19T16:19:06.696Z,93.41
2023-01-19T16:21:35.108Z,93.25
2023-01-19T16:24:03.477Z,93.50
2023-01-19T16:26:34.514Z,93.19
2023-01-19T16:29:08.009Z,93.66
2023-01-19T16:31:38.895Z,93.16
2023-01-19T16:34:07.419Z,93.35
2023-01-19T16:36:40.392Z,92.69
2023-01-19T16:39:11.537Z,93.03
2023-01-19T16:41:43.451Z,92.92
2023-01-19T16:44:16.195Z,92.78
2023-01-19T16:46:47.288Z,92.68
2023-01-19T16:49:17.070Z,92.68
2023-01-19T16:51:45.800Z,93.15
2023-01-19T16:54:15.236Z,92.92
2023-01-19T16:56:43.877Z,92.57
2023-01-19T16:59:15.825Z,92.99
2023-01-19T17:01:46.220Z,92.90
2023-01-19T17:04:15.041Z,93.65
2023-01-19T17:06:43.442Z,93.39
2023-01-19T17:09:11.905Z,93.32
2023-01-19T17:11:43.546Z,93.08
2023-01-19T17:14:13.862Z,93.34
2023-01-19T17:16:42.998Z,93.25
2023-01-19T17:19:15.966Z,93.02
2023-01-19T17:21:46.546Z,93.00
2023-01-19T17:24:15.174Z,92.46
2023-01-19T17:26:45.994Z,92.36
2023-01-19T17:29:14.547Z,92.34
2023-01-19T17:31:44.705Z,92.94
2023-01-19T17:34:14.591Z,93.24
2023-01-19T17:36:42.977Z,93.31
2023-01-19T17:39:15.064Z,93.76
2023-01-19T17:41:43.490Z,93.62
2023-01-19T17:44:12.064Z,93.77
2023-01-19T17:46:40.909Z,93.67
2023-01-19T17:49:09.572Z,94.39
2023-01-19T17:51:39.484Z,94.01
2023-01-19T17:54:07.870Z,94.13
2023-01-19T17:56:38.912Z,94.14
2023-01-19T17:59:08.337Z,94.32
2023-01-19T18:01:40.439Z,94.58
2023-01-19T18:04:12.077Z,94.49
2023-01-19T18:06:42.359Z,94.63
2023-01-19T18:09:11.048Z,94.56
2023-01-19T18:11:39.451Z,94.24
2023-01-19T18:14:07.869Z,94.21
2023-01-19T18:16:37.108Z,94.68
2023-01-19T18:19:07.306Z,94.07
2023-01-19T18:21:35.741Z,94.51
2023-01-19T18:24:07.301Z,94.50
2023-01-19T18:26:37.702Z,94.59
2023-01-19T18:29:06.278Z,93.94
2023-01-19T18:31:34.811Z,94.04
2023-01-19T18:34:03.536Z,94.04
2023-01-19T18:36:32.888Z,94.07
2023-01-19T18:39:02.201Z,94.24
2023-01-19T18:41:32.257Z,94.42
2023-01-19T18:44:02.509Z,94.55
2023-01-19T18:46:30.999Z,94.63
2023-01-19T18:48:59.452Z,94.77
2023-01-19T18:51:27.993Z,94.48
2023-01-19T18:53:59.618Z,94.79
2023-01-19T18:56:28.370Z,94.44
2023-01-19T18:58:58.280Z,94.62
2023-01-19T19:01:31.527Z,94.78
2023-01-19T19:04:04.171Z,94.68
2023-01-19T19:06:32.693Z,94.83
2023-01-19T19:09:01.452Z,94.25
2023-01-19T19:11:29.929Z,94.47
2023-01-19T19:14:03.974Z,94.49
2023-01-19T19:16:35.413Z,94.54
2023-01-19T19:19:04.783Z,94.34
2023-01-19T19:21:33.627Z,94.69
2023-01-19T19:24:02.267Z,94.38
2023-01-19T19:26:31.409Z,94.68
2023-01-19T19:28:59.979Z,94.42
2023-01-19T19:31:32.227Z,94.45
2023-01-19T19:34:07.587Z,94.54
2023-01-19T19:36:36.223Z,94.75
2023-01-19T19:39:04.594Z,94.57
2023-01-19T19:41:33.440Z,94.59
2023-01-19T19:44:03.713Z,94.68
2023-01-19T19:46:34.926Z,94.64
2023-01-19T19:49:03.419Z,94.39
2023-01-19T19:51:31.962Z,94.62
2023-01-19T19:54:01.662Z,95.01
2023-01-19T19:56:31.464Z,94.72
2023-01-19T19:59:00.884Z,94.93
2023-01-19T20:01:33.729Z,94.65
2023-01-19T20:04:08.720Z,94.39
2023-01-19T20:06:39.179Z,94.24
2023-01-19T20:09:08.698Z,94.39
2023-01-19T20:11:37.793Z,94.30
2023-01-19T20:14:07.091Z,94.34
2023-01-19T20:16:35.779Z,94.32
2023-01-19T20:19:04.582Z,93.76
2023-01-19T20:21:35.767Z,94.42
2023-01-19T20:24:07.641Z,93.95
2023-01-19T20:26:37.912Z,93.49
2023-01-19T20:29:07.503Z,93.83
2023-01-19T20:31:37.426Z,94.00
2023-01-19T20:34:08.163Z,94.18
2023-01-19T20:36:38.266Z,93.99
2023-01-19T20:39:11.211Z,93.82
2023-01-19T20:41:45.125Z,93.74
2023-01-19T20:44:14.561Z,93.93
2023-01-19T20:46:43.360Z,94.17
2023-01-19T20:49:15.219Z,94.11
2023-01-19T20:51:47.022Z,93.92
2023-01-19T20:54:19.355Z,93.78
2023-01-19T20:56:47.841Z,93.66
2023-01-19T20:59:16.280Z,93.09
2023-01-19T21:01:45.222Z,93.18
2023-01-19T21:04:15.406Z,93.40
2023-01-19T21:06:45.845Z,93.51
2023-01-19T21:09:14.230Z,93.03
2023-01-19T21:11:42.588Z,93.18
2023-01-19T21:14:12.610Z,92.77
2023-01-19T21:16:42.644Z,92.59
2023-01-19T21:19:12.020Z,92.39
2023-01-19T21:21:42.766Z,92.30
2023-01-19T21:24:15.001Z,92.23
2023-01-19T21:26:43.592Z,91.71
2023-01-19T21:29:14.142Z,91.56
2023-01-19T21:31:42.654Z,91.87
2023-01-19T21:34:11.175Z,92.00
2023-01-19T21:36:39.587Z,92.08
2023-01-19T21:39:08.295Z,92.40
2023-01-19T21:41:39.937Z,92.36
2023-01-19T21:44:08.360Z,92.43
2023-01-19T21:46:39.662Z,92.00
2023-01-19T21:49:09.245Z,92.16
2023-01-19T21:51:40.391Z,91.75
2023-01-19T21:54:08.919Z,91.57
2023-01-19T21:56:39.163Z,91.63
2023-01-19T21:59:07.662Z,91.68
2023-01-19T22:01:36.438Z,91.48
2023-01-19T22:04:05.089Z,91.27
2023-01-19T22:06:35.238Z,91.37
2023-01-19T22:09:03.864Z,91.29
2023-01-19T22:11:32.548Z,91.13
2023-01-19T22:14:02.326Z,91.33
2023-01-19T22:16:31.187Z,91.54
2023-01-19T22:19:02.077Z,91.11
2023-01-19T22:21:33.642Z,92.00
2023-01-19T22:24:03.238Z,91.36
2023-01-19T22:26:34.299Z,91.04
2023-01-19T22:29:05.495Z,91.09
2023-01-19T22:31:34.154Z,90.96
2023-01-19T22:34:02.785Z,90.59
2023-01-19T22:36:34.045Z,90.59
2023-01-19T22:39:03.706Z,90.77
2023-01-19T22:41:36.193Z,90.45
2023-01-19T22:44:07.519Z,90.56
2023-01-19T22:46:37.553Z,90.57
2023-01-19T22:49:07.570Z,90.14
2023-01-19T22:51:36.542Z,90.32
2023-01-19T22:54:05.225Z,89.95
2023-01-19T22:56:35.480Z,90.21
2023-01-19T22:59:06.371Z,90.13
2023-01-19T23:01:36.171Z,89.69
2023-01-19T23:04:07.740Z,90.11
2023-01-19T23:06:37.758Z,89.97
2023-01-19T23:09:11.261Z,90.69
2023-01-19T23:11:40.867Z,90.20
2023-01-19T23:14:14.497Z,90.62
2023-01-19T23:16:42.889Z,90.55
2023-01-19T23:19:12.717Z,90.32
2023-01-19T23:21:41.602Z,90.27
2023-01-19T23:24:10.745Z,89.58
2023-01-19T23:26:39.726Z,90.53
2023-01-19T23:29:15.829Z,89.79
2023-01-19T23:31:45.913Z,90.10
2023-01-19T23:34:20.154Z,89.91
2023-01-19T23:36:48.612Z,90.05
2023-01-19T23:39:18.521Z,89.99
2023-01-19T23:41:47.355Z,89.85
2023-01-19T23:44:17.414Z,90.17
2023-01-19T23:46:46.008Z,89.61
2023-01-19T23:49:16.568Z,89.65
2023-01-19T23:51:44.990Z,89.53
2023-01-19T23:54:13.476Z,89.65
2023-01-19T23:56:42.821Z,89.54
2023-01-19T23:59:13.109Z,89.31
